sensor_id;sensor_type;location;lat;lon;timestamp;P1;durP1;ratioP1;P2;durP2;ratioP2
37655;SDS011;23498;50.958;3.124;2022-07-29T00:01:46;8.55;;;3.05;;
37655;SDS011;23498;50.958;3.124;2022-07-29T00:04:12;6.13;;;2.60;;
37655;SDS011;23498;50.958;3.124;2022-07-29T00:06:38;4.65;;;2.95;;
37655;SDS011;23498;50.958;3.124;2022-07-29T00:09:04;7.03;;;3.30;;
37655;SDS011;23498;50.958;3.124;2022-07-29T00:11:30;7.32;;;3.20;;
37655;SDS011;23498;50.958;3.124;2022-07-29T00:13:56;7.55;;;3.13;;
37655;SDS011;23498;50.958;3.124;2022-07-29T00:16:22;5.35;;;3.33;;
37655;SDS011;23498;50.958;3.124;2022-07-29T00:18:48;5.88;;;3.40;;
37655;SDS011;23498;50.958;3.124;2022-07-29T00:21:14;6.13;;;2.90;;
37655;SDS011;23498;50.958;3.124;2022-07-29T00:23:40;7.85;;;3.08;;
37655;SDS011;23498;50.958;3.124;2022-07-29T00:26:06;7.70;;;3.33;;
37655;SDS011;23498;50.958;3.124;2022-07-29T00:28:32;6.75;;;3.25;;
37655;SDS011;23498;50.958;3.124;2022-07-29T00:30:59;6.38;;;3.53;;
37655;SDS011;23498;50.958;3.124;2022-07-29T00:33:25;8.30;;;3.60;;
37655;SDS011;23498;50.958;3.124;2022-07-29T00:35:51;5.75;;;3.08;;
37655;SDS011;23498;50.958;3.124;2022-07-29T00:38:18;9.02;;;3.30;;
37655;SDS011;23498;50.958;3.124;2022-07-29T00:40:45;8.77;;;3.60;;
37655;SDS011;23498;50.958;3.124;2022-07-29T00:43:11;7.90;;;3.22;;
37655;SDS011;23498;50.958;3.124;2022-07-29T00:45:38;6.38;;;3.75;;
37655;SDS011;23498;50.958;3.124;2022-07-29T00:48:04;7.80;;;3.95;;
37655;SDS011;23498;50.958;3.124;2022-07-29T00:50:31;6.38;;;3.55;;
37655;SDS011;23498;50.958;3.124;2022-07-29T00:52:57;6.88;;;3.50;;
37655;SDS011;23498;50.958;3.124;2022-07-29T00:55:23;8.50;;;3.55;;
37655;SDS011;23498;50.958;3.124;2022-07-29T00:57:49;18.20;;;4.18;;
37655;SDS011;23498;50.958;3.124;2022-07-29T01:00:20;7.88;;;3.30;;
37655;SDS011;23498;50.958;3.124;2022-07-29T01:02:47;7.15;;;3.97;;
37655;SDS011;23498;50.958;3.124;2022-07-29T01:05:13;7.10;;;3.88;;
37655;SDS011;23498;50.958;3.124;2022-07-29T01:07:40;8.13;;;4.03;;
37655;SDS011;23498;50.958;3.124;2022-07-29T01:10:07;5.85;;;3.65;;
37655;SDS011;23498;50.958;3.124;2022-07-29T01:12:35;5.70;;;3.33;;
37655;SDS011;23498;50.958;3.124;2022-07-29T01:15:02;6.93;;;3.75;;
37655;SDS011;23498;50.958;3.124;2022-07-29T01:25:09;6.20;;;3.85;;
37655;SDS011;23498;50.958;3.124;2022-07-29T01:27:41;8.30;;;3.75;;
37655;SDS011;23498;50.958;3.124;2022-07-29T01:30:10;6.60;;;3.70;;
37655;SDS011;23498;50.958;3.124;2022-07-29T01:32:37;7.78;;;4.07;;
37655;SDS011;23498;50.958;3.124;2022-07-29T01:35:05;11.05;;;4.82;;
37655;SDS011;23498;50.958;3.124;2022-07-29T01:37:45;8.27;;;3.95;;
37655;SDS011;23498;50.958;3.124;2022-07-29T01:40:20;8.27;;;4.28;;
37655;SDS011;23498;50.958;3.124;2022-07-29T01:42:48;9.10;;;4.50;;
37655;SDS011;23498;50.958;3.124;2022-07-29T01:48:10;9.35;;;4.43;;
37655;SDS011;23498;50.958;3.124;2022-07-29T01:50:44;8.07;;;4.65;;
37655;SDS011;23498;50.958;3.124;2022-07-29T01:53:11;8.35;;;5.30;;
37655;SDS011;23498;50.958;3.124;2022-07-29T01:55:38;11.98;;;5.13;;
37655;SDS011;23498;50.958;3.124;2022-07-29T01:58:06;7.22;;;4.45;;
37655;SDS011;23498;50.958;3.124;2022-07-29T02:00:33;7.50;;;4.75;;
37655;SDS011;23498;50.958;3.124;2022-07-29T02:03:04;9.52;;;5.00;;
37655;SDS011;23498;50.958;3.124;2022-07-29T02:05:31;8.48;;;4.95;;
37655;SDS011;23498;50.958;3.124;2022-07-29T02:07:58;8.75;;;4.90;;
37655;SDS011;23498;50.958;3.124;2022-07-29T02:10:28;6.32;;;4.95;;
37655;SDS011;23498;50.958;3.124;2022-07-29T02:12:54;7.82;;;5.07;;
37655;SDS011;23498;50.958;3.124;2022-07-29T02:15:23;7.95;;;5.55;;
37655;SDS011;23498;50.958;3.124;2022-07-29T02:18:12;8.93;;;4.70;;
37655;SDS011;23498;50.958;3.124;2022-07-29T02:20:36;9.38;;;5.07;;
37655;SDS011;23498;50.958;3.124;2022-07-29T02:23:03;7.47;;;4.80;;
37655;SDS011;23498;50.958;3.124;2022-07-29T02:25:30;9.20;;;5.10;;
37655;SDS011;23498;50.958;3.124;2022-07-29T02:27:56;7.13;;;5.45;;
37655;SDS011;23498;50.958;3.124;2022-07-29T02:30:23;8.35;;;5.40;;
37655;SDS011;23498;50.958;3.124;2022-07-29T02:32:49;8.65;;;4.68;;
37655;SDS011;23498;50.958;3.124;2022-07-29T02:35:16;10.02;;;5.80;;
37655;SDS011;23498;50.958;3.124;2022-07-29T02:37:44;11.05;;;5.53;;
37655;SDS011;23498;50.958;3.124;2022-07-29T02:40:31;8.05;;;4.85;;
37655;SDS011;23498;50.958;3.124;2022-07-29T02:42:58;8.85;;;5.45;;
37655;SDS011;23498;50.958;3.124;2022-07-29T02:45:24;10.00;;;5.80;;
37655;SDS011;23498;50.958;3.124;2022-07-29T02:47:50;10.35;;;5.43;;
37655;SDS011;23498;50.958;3.124;2022-07-29T02:50:18;9.43;;;5.35;;
37655;SDS011;23498;50.958;3.124;2022-07-29T02:52:52;8.20;;;5.40;;
37655;SDS011;23498;50.958;3.124;2022-07-29T02:55:29;7.15;;;5.20;;
37655;SDS011;23498;50.958;3.124;2022-07-29T02:58:07;8.65;;;5.35;;
37655;SDS011;23498;50.958;3.124;2022-07-29T03:00:34;8.88;;;5.47;;
37655;SDS011;23498;50.958;3.124;2022-07-29T03:03:04;8.68;;;5.68;;
37655;SDS011;23498;50.958;3.124;2022-07-29T03:05:33;12.82;;;5.40;;
37655;SDS011;23498;50.958;3.124;2022-07-29T03:08:00;8.68;;;6.35;;
37655;SDS011;23498;50.958;3.124;2022-07-29T03:10:27;8.45;;;5.07;;
37655;SDS011;23498;50.958;3.124;2022-07-29T03:12:54;7.80;;;5.07;;
37655;SDS011;23498;50.958;3.124;2022-07-29T03:15:20;11.95;;;5.60;;
37655;SDS011;23498;50.958;3.124;2022-07-29T03:17:47;7.70;;;5.40;;
37655;SDS011;23498;50.958;3.124;2022-07-29T03:20:13;9.32;;;5.60;;
37655;SDS011;23498;50.958;3.124;2022-07-29T03:22:40;7.65;;;4.97;;
37655;SDS011;23498;50.958;3.124;2022-07-29T03:25:12;9.90;;;5.47;;
37655;SDS011;23498;50.958;3.124;2022-07-29T03:27:38;6.22;;;5.28;;
37655;SDS011;23498;50.958;3.124;2022-07-29T03:30:04;9.43;;;5.13;;
37655;SDS011;23498;50.958;3.124;2022-07-29T03:32:31;7.32;;;5.18;;
37655;SDS011;23498;50.958;3.124;2022-07-29T03:34:57;8.25;;;5.90;;
37655;SDS011;23498;50.958;3.124;2022-07-29T03:37:23;9.02;;;6.03;;
37655;SDS011;23498;50.958;3.124;2022-07-29T03:39:49;8.40;;;5.57;;
37655;SDS011;23498;50.958;3.124;2022-07-29T03:42:16;7.57;;;5.13;;
37655;SDS011;23498;50.958;3.124;2022-07-29T03:44:45;10.75;;;5.18;;
37655;SDS011;23498;50.958;3.124;2022-07-29T03:47:11;9.02;;;5.53;;
37655;SDS011;23498;50.958;3.124;2022-07-29T03:49:38;10.07;;;5.38;;
37655;SDS011;23498;50.958;3.124;2022-07-29T03:52:05;8.15;;;5.18;;
37655;SDS011;23498;50.958;3.124;2022-07-29T03:54:31;8.70;;;5.60;;
37655;SDS011;23498;50.958;3.124;2022-07-29T03:56:59;10.60;;;5.60;;
37655;SDS011;23498;50.958;3.124;2022-07-29T03:59:25;9.45;;;5.35;;
37655;SDS011;23498;50.958;3.124;2022-07-29T04:01:51;8.68;;;5.20;;
37655;SDS011;23498;50.958;3.124;2022-07-29T04:04:18;11.20;;;5.47;;
37655;SDS011;23498;50.958;3.124;2022-07-29T04:06:44;9.52;;;5.40;;
37655;SDS011;23498;50.958;3.124;2022-07-29T04:09:11;8.27;;;5.60;;
37655;SDS011;23498;50.958;3.124;2022-07-29T04:11:40;11.90;;;5.40;;
37655;SDS011;23498;50.958;3.124;2022-07-29T04:14:07;9.40;;;5.68;;
37655;SDS011;23498;50.958;3.124;2022-07-29T04:16:33;7.63;;;5.22;;
37655;SDS011;23498;50.958;3.124;2022-07-29T04:18:59;8.40;;;5.60;;
37655;SDS011;23498;50.958;3.124;2022-07-29T04:21:25;8.80;;;5.25;;
37655;SDS011;23498;50.958;3.124;2022-07-29T04:23:51;9.02;;;5.47;;
37655;SDS011;23498;50.958;3.124;2022-07-29T04:26:17;9.15;;;6.05;;
37655;SDS011;23498;50.958;3.124;2022-07-29T04:28:43;9.38;;;6.32;;
37655;SDS011;23498;50.958;3.124;2022-07-29T04:31:10;9.25;;;5.82;;
37655;SDS011;23498;50.958;3.124;2022-07-29T04:33:36;10.90;;;5.47;;
37655;SDS011;23498;50.958;3.124;2022-07-29T04:36:02;10.00;;;5.53;;
37655;SDS011;23498;50.958;3.124;2022-07-29T04:38:28;8.73;;;6.22;;
37655;SDS011;23498;50.958;3.124;2022-07-29T04:40:54;11.43;;;5.68;;
37655;SDS011;23498;50.958;3.124;2022-07-29T04:43:20;10.43;;;6.50;;
37655;SDS011;23498;50.958;3.124;2022-07-29T04:45:46;10.95;;;6.18;;
37655;SDS011;23498;50.958;3.124;2022-07-29T04:48:12;10.75;;;6.50;;
37655;SDS011;23498;50.958;3.124;2022-07-29T04:50:38;8.75;;;6.50;;
37655;SDS011;23498;50.958;3.124;2022-07-29T04:53:04;8.48;;;6.13;;
37655;SDS011;23498;50.958;3.124;2022-07-29T04:55:30;8.93;;;6.15;;
37655;SDS011;23498;50.958;3.124;2022-07-29T04:57:56;9.73;;;6.55;;
37655;SDS011;23498;50.958;3.124;2022-07-29T05:00:22;7.85;;;5.55;;
37655;SDS011;23498;50.958;3.124;2022-07-29T05:02:49;8.55;;;6.00;;
37655;SDS011;23498;50.958;3.124;2022-07-29T05:05:15;8.93;;;5.68;;
37655;SDS011;23498;50.958;3.124;2022-07-29T05:07:41;10.85;;;5.68;;
37655;SDS011;23498;50.958;3.124;2022-07-29T05:10:07;9.90;;;5.68;;
37655;SDS011;23498;50.958;3.124;2022-07-29T05:12:34;9.05;;;6.07;;
37655;SDS011;23498;50.958;3.124;2022-07-29T05:15:00;9.27;;;5.50;;
37655;SDS011;23498;50.958;3.124;2022-07-29T05:17:26;7.75;;;4.80;;
37655;SDS011;23498;50.958;3.124;2022-07-29T05:19:52;7.80;;;5.40;;
37655;SDS011;23498;50.958;3.124;2022-07-29T05:22:18;8.38;;;4.85;;
37655;SDS011;23498;50.958;3.124;2022-07-29T05:24:44;6.55;;;4.35;;
37655;SDS011;23498;50.958;3.124;2022-07-29T05:27:10;7.97;;;4.57;;
37655;SDS011;23498;50.958;3.124;2022-07-29T05:29:36;7.40;;;4.03;;
37655;SDS011;23498;50.958;3.124;2022-07-29T05:32:03;10.10;;;4.60;;
37655;SDS011;23498;50.958;3.124;2022-07-29T05:34:29;6.75;;;4.35;;
37655;SDS011;23498;50.958;3.124;2022-07-29T05:36:55;8.32;;;4.38;;
37655;SDS011;23498;50.958;3.124;2022-07-29T05:39:21;7.18;;;4.18;;
37655;SDS011;23498;50.958;3.124;2022-07-29T05:41:47;5.80;;;4.15;;
37655;SDS011;23498;50.958;3.124;2022-07-29T05:44:14;9.40;;;4.30;;
37655;SDS011;23498;50.958;3.124;2022-07-29T05:46:40;6.20;;;4.22;;
37655;SDS011;23498;50.958;3.124;2022-07-29T05:49:06;10.68;;;4.38;;
37655;SDS011;23498;50.958;3.124;2022-07-29T05:51:33;9.70;;;4.68;;
37655;SDS011;23498;50.958;3.124;2022-07-29T05:53:59;8.48;;;4.70;;
37655;SDS011;23498;50.958;3.124;2022-07-29T05:56:25;6.72;;;4.43;;
37655;SDS011;23498;50.958;3.124;2022-07-29T05:58:51;7.28;;;4.47;;
37655;SDS011;23498;50.958;3.124;2022-07-29T06:01:17;6.97;;;4.55;;
37655;SDS011;23498;50.958;3.124;2022-07-29T06:03:44;7.32;;;4.60;;
37655;SDS011;23498;50.958;3.124;2022-07-29T06:06:10;9.90;;;5.03;;
37655;SDS011;23498;50.958;3.124;2022-07-29T06:08:36;7.65;;;4.68;;
37655;SDS011;23498;50.958;3.124;2022-07-29T06:11:02;10.27;;;4.70;;
37655;SDS011;23498;50.958;3.124;2022-07-29T06:13:29;7.55;;;5.03;;
37655;SDS011;23498;50.958;3.124;2022-07-29T06:15:55;14.73;;;5.40;;
37655;SDS011;23498;50.958;3.124;2022-07-29T06:18:21;10.13;;;4.85;;
37655;SDS011;23498;50.958;3.124;2022-07-29T06:20:49;7.15;;;4.30;;
37655;SDS011;23498;50.958;3.124;2022-07-29T06:23:16;7.90;;;4.60;;
37655;SDS011;23498;50.958;3.124;2022-07-29T06:25:42;6.75;;;4.88;;
37655;SDS011;23498;50.958;3.124;2022-07-29T06:28:08;11.00;;;5.05;;
37655;SDS011;23498;50.958;3.124;2022-07-29T06:30:34;14.05;;;5.05;;
37655;SDS011;23498;50.958;3.124;2022-07-29T06:33:00;10.07;;;5.88;;
37655;SDS011;23498;50.958;3.124;2022-07-29T06:35:27;11.15;;;5.20;;
37655;SDS011;23498;50.958;3.124;2022-07-29T06:37:53;8.77;;;5.00;;
37655;SDS011;23498;50.958;3.124;2022-07-29T06:40:19;8.57;;;4.88;;
37655;SDS011;23498;50.958;3.124;2022-07-29T06:43:04;8.38;;;4.65;;
37655;SDS011;23498;50.958;3.124;2022-07-29T06:45:33;7.75;;;4.72;;
37655;SDS011;23498;50.958;3.124;2022-07-29T06:47:59;7.43;;;4.97;;
37655;SDS011;23498;50.958;3.124;2022-07-29T06:50:25;7.38;;;4.72;;
37655;SDS011;23498;50.958;3.124;2022-07-29T06:52:51;6.22;;;4.90;;
37655;SDS011;23498;50.958;3.124;2022-07-29T06:55:17;8.35;;;5.25;;
37655;SDS011;23498;50.958;3.124;2022-07-29T06:57:44;9.85;;;5.05;;
37655;SDS011;23498;50.958;3.124;2022-07-29T07:00:10;10.93;;;5.30;;
37655;SDS011;23498;50.958;3.124;2022-07-29T07:02:36;7.80;;;5.35;;
37655;SDS011;23498;50.958;3.124;2022-07-29T07:05:02;10.25;;;4.68;;
37655;SDS011;23498;50.958;3.124;2022-07-29T07:07:30;6.80;;;5.00;;
37655;SDS011;23498;50.958;3.124;2022-07-29T07:09:56;7.18;;;4.78;;
37655;SDS011;23498;50.958;3.124;2022-07-29T07:12:22;11.35;;;4.97;;
37655;SDS011;23498;50.958;3.124;2022-07-29T07:14:48;9.60;;;5.32;;
37655;SDS011;23498;50.958;3.124;2022-07-29T07:17:14;8.45;;;5.03;;
37655;SDS011;23498;50.958;3.124;2022-07-29T07:19:40;11.38;;;5.85;;
37655;SDS011;23498;50.958;3.124;2022-07-29T07:22:06;12.70;;;5.15;;
37655;SDS011;23498;50.958;3.124;2022-07-29T07:24:32;13.75;;;5.70;;
37655;SDS011;23498;50.958;3.124;2022-07-29T07:26:58;8.88;;;4.85;;
37655;SDS011;23498;50.958;3.124;2022-07-29T07:29:24;7.68;;;4.78;;
37655;SDS011;23498;50.958;3.124;2022-07-29T07:31:50;8.85;;;4.78;;
37655;SDS011;23498;50.958;3.124;2022-07-29T07:34:16;7.47;;;4.80;;
37655;SDS011;23498;50.958;3.124;2022-07-29T07:36:42;9.13;;;4.93;;
37655;SDS011;23498;50.958;3.124;2022-07-29T07:39:08;10.10;;;5.32;;
37655;SDS011;23498;50.958;3.124;2022-07-29T07:41:34;9.63;;;4.85;;
37655;SDS011;23498;50.958;3.124;2022-07-29T07:44:00;8.32;;;4.57;;
37655;SDS011;23498;50.958;3.124;2022-07-29T07:46:26;8.40;;;4.88;;
37655;SDS011;23498;50.958;3.124;2022-07-29T07:48:52;8.30;;;5.07;;
37655;SDS011;23498;50.958;3.124;2022-07-29T07:51:18;10.00;;;4.63;;
37655;SDS011;23498;50.958;3.124;2022-07-29T07:53:44;6.45;;;4.60;;
37655;SDS011;23498;50.958;3.124;2022-07-29T07:56:14;8.32;;;4.72;;
37655;SDS011;23498;50.958;3.124;2022-07-29T07:58:40;11.95;;;4.82;;
37655;SDS011;23498;50.958;3.124;2022-07-29T08:01:07;10.13;;;5.18;;
37655;SDS011;23498;50.958;3.124;2022-07-29T08:03:33;10.95;;;4.55;;
37655;SDS011;23498;50.958;3.124;2022-07-29T08:05:59;7.93;;;4.93;;
37655;SDS011;23498;50.958;3.124;2022-07-29T08:08:25;7.60;;;4.57;;
37655;SDS011;23498;50.958;3.124;2022-07-29T08:10:51;8.13;;;4.07;;
37655;SDS011;23498;50.958;3.124;2022-07-29T08:13:18;7.15;;;4.15;;
37655;SDS011;23498;50.958;3.124;2022-07-29T08:15:44;8.45;;;5.15;;
37655;SDS011;23498;50.958;3.124;2022-07-29T08:18:13;9.98;;;4.60;;
37655;SDS011;23498;50.958;3.124;2022-07-29T08:20:40;8.55;;;4.63;;
37655;SDS011;23498;50.958;3.124;2022-07-29T08:23:06;11.35;;;5.40;;
37655;SDS011;23498;50.958;3.124;2022-07-29T08:25:36;9.57;;;4.50;;
37655;SDS011;23498;50.958;3.124;2022-07-29T08:28:05;8.50;;;4.57;;
37655;SDS011;23498;50.958;3.124;2022-07-29T08:30:31;10.85;;;6.13;;
37655;SDS011;23498;50.958;3.124;2022-07-29T08:32:57;11.68;;;4.95;;
37655;SDS011;23498;50.958;3.124;2022-07-29T08:35:23;11.43;;;6.90;;
37655;SDS011;23498;50.958;3.124;2022-07-29T08:37:50;7.13;;;4.72;;
37655;SDS011;23498;50.958;3.124;2022-07-29T08:40:16;6.63;;;4.45;;
37655;SDS011;23498;50.958;3.124;2022-07-29T08:42:42;11.27;;;3.85;;
37655;SDS011;23498;50.958;3.124;2022-07-29T08:45:08;5.75;;;3.70;;
37655;SDS011;23498;50.958;3.124;2022-07-29T08:47:35;8.65;;;4.20;;
37655;SDS011;23498;50.958;3.124;2022-07-29T08:50:04;7.97;;;4.40;;
37655;SDS011;23498;50.958;3.124;2022-07-29T08:52:32;7.57;;;4.63;;
37655;SDS011;23498;50.958;3.124;2022-07-29T08:55:00;7.88;;;3.95;;
37655;SDS011;23498;50.958;3.124;2022-07-29T08:57:26;8.15;;;4.10;;
37655;SDS011;23498;50.958;3.124;2022-07-29T08:59:53;8.02;;;3.97;;
37655;SDS011;23498;50.958;3.124;2022-07-29T09:02:20;12.35;;;4.80;;
37655;SDS011;23498;50.958;3.124;2022-07-29T09:04:47;7.07;;;3.70;;
37655;SDS011;23498;50.958;3.124;2022-07-29T09:07:16;7.80;;;4.30;;
37655;SDS011;23498;50.958;3.124;2022-07-29T09:09:43;6.28;;;3.95;;
37655;SDS011;23498;50.958;3.124;2022-07-29T09:12:09;7.40;;;4.07;;
37655;SDS011;23498;50.958;3.124;2022-07-29T09:14:39;8.20;;;2.85;;
37655;SDS011;23498;50.958;3.124;2022-07-29T09:17:05;11.43;;;3.47;;
37655;SDS011;23498;50.958;3.124;2022-07-29T09:19:35;4.57;;;2.72;;
37655;SDS011;23498;50.958;3.124;2022-07-29T09:22:04;6.88;;;3.47;;
37655;SDS011;23498;50.958;3.124;2022-07-29T09:24:39;8.55;;;3.55;;
37655;SDS011;23498;50.958;3.124;2022-07-29T09:27:24;9.05;;;3.88;;
37655;SDS011;23498;50.958;3.124;2022-07-29T09:30:06;6.63;;;3.25;;
37655;SDS011;23498;50.958;3.124;2022-07-29T09:32:53;5.82;;;3.20;;
37655;SDS011;23498;50.958;3.124;2022-07-29T09:35:20;10.88;;;3.72;;
37655;SDS011;23498;50.958;3.124;2022-07-29T09:37:47;7.20;;;3.00;;
37655;SDS011;23498;50.958;3.124;2022-07-29T09:40:23;8.68;;;2.97;;
37655;SDS011;23498;50.958;3.124;2022-07-29T09:42:50;6.75;;;3.65;;
37655;SDS011;23498;50.958;3.124;2022-07-29T09:45:32;6.88;;;3.78;;
37655;SDS011;23498;50.958;3.124;2022-07-29T09:47:59;6.00;;;3.33;;
37655;SDS011;23498;50.958;3.124;2022-07-29T09:50:37;4.35;;;2.95;;
37655;SDS011;23498;50.958;3.124;2022-07-29T09:53:04;4.88;;;3.20;;
37655;SDS011;23498;50.958;3.124;2022-07-29T09:55:30;5.65;;;2.47;;
37655;SDS011;23498;50.958;3.124;2022-07-29T09:58:14;7.30;;;2.88;;
37655;SDS011;23498;50.958;3.124;2022-07-29T10:00:41;5.78;;;3.17;;
37655;SDS011;23498;50.958;3.124;2022-07-29T10:03:08;7.45;;;2.75;;
37655;SDS011;23498;50.958;3.124;2022-07-29T10:05:34;8.35;;;2.60;;
37655;SDS011;23498;50.958;3.124;2022-07-29T10:08:00;7.35;;;2.97;;
37655;SDS011;23498;50.958;3.124;2022-07-29T10:10:33;5.80;;;2.40;;
37655;SDS011;23498;50.958;3.124;2022-07-29T10:13:01;7.35;;;3.30;;
37655;SDS011;23498;50.958;3.124;2022-07-29T10:15:28;6.95;;;3.38;;
37655;SDS011;23498;50.958;3.124;2022-07-29T10:17:55;6.38;;;2.95;;
37655;SDS011;23498;50.958;3.124;2022-07-29T10:20:22;7.97;;;3.38;;
37655;SDS011;23498;50.958;3.124;2022-07-29T10:22:49;7.68;;;3.40;;
37655;SDS011;23498;50.958;3.124;2022-07-29T10:25:15;5.43;;;3.30;;
37655;SDS011;23498;50.958;3.124;2022-07-29T10:27:41;6.15;;;3.20;;
37655;SDS011;23498;50.958;3.124;2022-07-29T10:30:08;7.43;;;3.30;;
37655;SDS011;23498;50.958;3.124;2022-07-29T10:35:12;6.15;;;3.47;;
37655;SDS011;23498;50.958;3.124;2022-07-29T10:43:48;5.22;;;3.20;;
37655;SDS011;23498;50.958;3.124;2022-07-29T10:45:58;8.60;;;2.93;;
37655;SDS011;23498;50.958;3.124;2022-07-29T10:48:25;5.20;;;2.78;;
37655;SDS011;23498;50.958;3.124;2022-07-29T10:50:51;8.23;;;2.70;;
37655;SDS011;23498;50.958;3.124;2022-07-29T10:53:18;8.75;;;3.30;;
37655;SDS011;23498;50.958;3.124;2022-07-29T10:55:44;6.47;;;3.30;;
37655;SDS011;23498;50.958;3.124;2022-07-29T10:58:17;6.80;;;2.65;;
37655;SDS011;23498;50.958;3.124;2022-07-29T11:00:44;6.38;;;2.80;;
37655;SDS011;23498;50.958;3.124;2022-07-29T11:05:56;6.10;;;2.80;;
37655;SDS011;23498;50.958;3.124;2022-07-29T11:08:22;7.28;;;2.85;;
37655;SDS011;23498;50.958;3.124;2022-07-29T11:10:50;6.38;;;2.92;;
37655;SDS011;23498;50.958;3.124;2022-07-29T11:16:01;7.43;;;3.40;;
37655;SDS011;23498;50.958;3.124;2022-07-29T11:18:27;6.80;;;3.40;;
37655;SDS011;23498;50.958;3.124;2022-07-29T11:20:54;5.30;;;3.10;;
37655;SDS011;23498;50.958;3.124;2022-07-29T11:26:16;5.55;;;2.78;;
37655;SDS011;23498;50.958;3.124;2022-07-29T11:28:39;7.10;;;2.58;;
37655;SDS011;23498;50.958;3.124;2022-07-29T11:33:36;5.45;;;2.83;;
37655;SDS011;23498;50.958;3.124;2022-07-29T11:36:12;9.00;;;3.30;;
37655;SDS011;23498;50.958;3.124;2022-07-29T11:38:39;5.32;;;2.70;;
37655;SDS011;23498;50.958;3.124;2022-07-29T11:43:48;6.78;;;2.88;;
37655;SDS011;23498;50.958;3.124;2022-07-29T11:46:16;6.78;;;2.85;;
37655;SDS011;23498;50.958;3.124;2022-07-29T11:48:42;5.18;;;2.58;;
37655;SDS011;23498;50.958;3.124;2022-07-29T11:51:09;7.15;;;2.83;;
37655;SDS011;23498;50.958;3.124;2022-07-29T11:53:36;6.90;;;2.53;;
37655;SDS011;23498;50.958;3.124;2022-07-29T11:56:02;5.57;;;2.92;;
37655;SDS011;23498;50.958;3.124;2022-07-29T11:58:29;4.25;;;2.88;;
37655;SDS011;23498;50.958;3.124;2022-07-29T12:00:56;6.38;;;2.80;;
37655;SDS011;23498;50.958;3.124;2022-07-29T12:03:26;5.95;;;3.03;;
37655;SDS011;23498;50.958;3.124;2022-07-29T12:05:52;6.15;;;2.85;;
37655;SDS011;23498;50.958;3.124;2022-07-29T12:08:19;7.55;;;3.15;;
37655;SDS011;23498;50.958;3.124;2022-07-29T12:10:47;7.65;;;3.20;;
37655;SDS011;23498;50.958;3.124;2022-07-29T12:13:13;5.25;;;3.08;;
37655;SDS011;23498;50.958;3.124;2022-07-29T12:15:40;8.05;;;3.05;;
37655;SDS011;23498;50.958;3.124;2022-07-29T12:18:10;7.70;;;2.90;;
37655;SDS011;23498;50.958;3.124;2022-07-29T12:20:36;5.03;;;2.28;;
37655;SDS011;23498;50.958;3.124;2022-07-29T12:23:06;5.18;;;2.35;;
37655;SDS011;23498;50.958;3.124;2022-07-29T12:25:39;6.22;;;2.35;;
37655;SDS011;23498;50.958;3.124;2022-07-29T12:28:06;7.32;;;2.70;;
37655;SDS011;23498;50.958;3.124;2022-07-29T12:30:37;5.20;;;3.05;;
37655;SDS011;23498;50.958;3.124;2022-07-29T12:33:23;7.97;;;3.28;;
37655;SDS011;23498;50.958;3.124;2022-07-29T12:35:57;5.97;;;3.30;;
37655;SDS011;23498;50.958;3.124;2022-07-29T12:38:23;6.32;;;2.65;;
37655;SDS011;23498;50.958;3.124;2022-07-29T12:40:50;6.68;;;3.28;;
37655;SDS011;23498;50.958;3.124;2022-07-29T12:43:18;7.28;;;3.20;;
37655;SDS011;23498;50.958;3.124;2022-07-29T12:45:46;10.40;;;3.60;;
37655;SDS011;23498;50.958;3.124;2022-07-29T12:48:13;6.68;;;3.15;;
37655;SDS011;23498;50.958;3.124;2022-07-29T12:50:55;9.38;;;4.45;;
37655;SDS011;23498;50.958;3.124;2022-07-29T12:53:21;7.70;;;3.47;;
37655;SDS011;23498;50.958;3.124;2022-07-29T12:55:48;6.60;;;2.80;;
37655;SDS011;23498;50.958;3.124;2022-07-29T12:58:26;6.07;;;3.33;;
37655;SDS011;23498;50.958;3.124;2022-07-29T13:01:00;6.65;;;2.70;;
37655;SDS011;23498;50.958;3.124;2022-07-29T13:03:26;5.30;;;3.30;;
37655;SDS011;23498;50.958;3.124;2022-07-29T13:05:52;5.45;;;2.35;;
37655;SDS011;23498;50.958;3.124;2022-07-29T13:08:18;5.30;;;2.78;;
37655;SDS011;23498;50.958;3.124;2022-07-29T13:10:45;7.38;;;3.20;;
37655;SDS011;23498;50.958;3.124;2022-07-29T13:13:12;6.43;;;2.92;;
37655;SDS011;23498;50.958;3.124;2022-07-29T13:15:42;9.13;;;3.38;;
37655;SDS011;23498;50.958;3.124;2022-07-29T13:18:28;11.13;;;4.00;;
37655;SDS011;23498;50.958;3.124;2022-07-29T13:20:54;8.10;;;3.05;;
37655;SDS011;23498;50.958;3.124;2022-07-29T13:23:20;5.25;;;3.10;;
37655;SDS011;23498;50.958;3.124;2022-07-29T13:25:47;6.90;;;3.17;;
37655;SDS011;23498;50.958;3.124;2022-07-29T13:28:13;8.20;;;3.78;;
37655;SDS011;23498;50.958;3.124;2022-07-29T13:30:39;8.50;;;3.05;;
37655;SDS011;23498;50.958;3.124;2022-07-29T13:33:06;6.63;;;3.13;;
37655;SDS011;23498;50.958;3.124;2022-07-29T13:35:32;5.70;;;2.90;;
37655;SDS011;23498;50.958;3.124;2022-07-29T13:37:58;6.63;;;3.38;;
37655;SDS011;23498;50.958;3.124;2022-07-29T13:40:24;7.80;;;3.15;;
37655;SDS011;23498;50.958;3.124;2022-07-29T13:42:50;6.85;;;2.67;;
37655;SDS011;23498;50.958;3.124;2022-07-29T13:45:17;6.55;;;3.20;;
37655;SDS011;23498;50.958;3.124;2022-07-29T13:47:43;4.72;;;2.88;;
37655;SDS011;23498;50.958;3.124;2022-07-29T13:50:09;6.03;;;2.90;;
37655;SDS011;23498;50.958;3.124;2022-07-29T13:52:36;9.82;;;2.65;;
37655;SDS011;23498;50.958;3.124;2022-07-29T13:55:03;6.32;;;2.83;;
37655;SDS011;23498;50.958;3.124;2022-07-29T13:57:29;8.52;;;2.60;;
37655;SDS011;23498;50.958;3.124;2022-07-29T13:59:55;6.35;;;2.90;;
37655;SDS011;23498;50.958;3.124;2022-07-29T14:02:22;7.88;;;2.97;;
37655;SDS011;23498;50.958;3.124;2022-07-29T14:04:48;7.05;;;3.03;;
37655;SDS011;23498;50.958;3.124;2022-07-29T14:07:14;6.53;;;2.90;;
37655;SDS011;23498;50.958;3.124;2022-07-29T14:09:40;6.72;;;2.90;;
37655;SDS011;23498;50.958;3.124;2022-07-29T14:12:06;5.50;;;2.03;;
37655;SDS011;23498;50.958;3.124;2022-07-29T14:14:32;7.35;;;2.67;;
37655;SDS011;23498;50.958;3.124;2022-07-29T14:17:00;4.15;;;2.33;;
37655;SDS011;23498;50.958;3.124;2022-07-29T14:19:27;6.40;;;2.70;;
37655;SDS011;23498;50.958;3.124;2022-07-29T14:21:53;4.32;;;2.53;;
37655;SDS011;23498;50.958;3.124;2022-07-29T14:24:19;5.50;;;2.00;;
37655;SDS011;23498;50.958;3.124;2022-07-29T14:26:45;4.05;;;2.25;;
37655;SDS011;23498;50.958;3.124;2022-07-29T14:29:11;5.20;;;2.10;;
37655;SDS011;23498;50.958;3.124;2022-07-29T14:31:37;4.60;;;2.30;;
37655;SDS011;23498;50.958;3.124;2022-07-29T14:34:03;6.82;;;2.40;;
37655;SDS011;23498;50.958;3.124;2022-07-29T14:36:29;7.50;;;2.70;;
37655;SDS011;23498;50.958;3.124;2022-07-29T14:38:55;6.78;;;2.70;;
37655;SDS011;23498;50.958;3.124;2022-07-29T14:41:21;5.72;;;2.58;;
37655;SDS011;23498;50.958;3.124;2022-07-29T14:43:47;5.82;;;2.42;;
37655;SDS011;23498;50.958;3.124;2022-07-29T14:46:13;6.55;;;2.60;;
37655;SDS011;23498;50.958;3.124;2022-07-29T14:48:39;7.82;;;2.33;;
37655;SDS011;23498;50.958;3.124;2022-07-29T14:51:05;6.90;;;2.80;;
37655;SDS011;23498;50.958;3.124;2022-07-29T14:53:31;5.35;;;2.47;;
37655;SDS011;23498;50.958;3.124;2022-07-29T14:55:57;5.57;;;2.30;;
37655;SDS011;23498;50.958;3.124;2022-07-29T14:58:23;7.88;;;2.15;;
37655;SDS011;23498;50.958;3.124;2022-07-29T15:00:49;7.53;;;2.40;;
37655;SDS011;23498;50.958;3.124;2022-07-29T15:03:15;6.57;;;2.42;;
37655;SDS011;23498;50.958;3.124;2022-07-29T15:05:41;7.97;;;2.63;;
37655;SDS011;23498;50.958;3.124;2022-07-29T15:08:07;8.30;;;2.45;;
37655;SDS011;23498;50.958;3.124;2022-07-29T15:10:33;8.95;;;2.38;;
37655;SDS011;23498;50.958;3.124;2022-07-29T15:13:00;7.30;;;2.72;;
37655;SDS011;23498;50.958;3.124;2022-07-29T15:15:26;6.05;;;2.45;;
37655;SDS011;23498;50.958;3.124;2022-07-29T15:17:52;6.72;;;3.08;;
37655;SDS011;23498;50.958;3.124;2022-07-29T15:20:18;6.07;;;3.00;;